Time;durP1;ratioP1;P1;durP2;ratioP2;P2;SDS_P1;SDS_P2;PMS_P1;PMS_P2;Temp;Humidity;BMP_temperature;BMP_pressure;BME280_temperature;BME280_humidity;BME280_pressure;Samples;Min_cycle;Max_cycle;Signal;HPM_P1;HPM_P2
2021/12/30 00:02:21;;;;;;;34.67;17.92;;;-10.00;90.90;;;;;;4994582;28;20436;-81
2021/12/30 00:04:46;;;;;;;36.00;17.20;;;-10.10;90.90;;;;;;4994532;28;20149;-78
2021/12/30 00:07:12;;;;;;;34.22;17.05;;;-10.10;91.10;;;;;;4994377;28;20018;-79
2021/12/30 00:09:39;;;;;;;38.30;21.35;;;-10.00;91.30;;;;;;4995690;28;20022;-81
2021/12/30 00:12:06;;;;;;;40.58;21.90;;;-10.00;91.50;;;;;;4995992;28;20030;-81
2021/12/30 00:14:32;;;;;;;39.15;20.90;;;-10.00;91.10;;;;;;4983205;28;20062;-81
2021/12/30 00:16:59;;;;;;;33.33;16.58;;;-10.00;91.20;;;;;;4994482;28;20131;-80
2021/12/30 00:19:24;;;;;;;26.50;14.80;;;-10.00;91.30;;;;;;4993141;28;20396;-80
2021/12/30 00:21:50;;;;;;;31.55;16.27;;;-10.00;91.40;;;;;;4993829;28;20032;-82
2021/12/30 00:24:16;;;;;;;30.73;17.75;;;-9.90;91.40;;;;;;4993733;28;20101;-79
2021/12/30 00:26:42;;;;;;;31.98;19.40;;;-9.90;91.50;;;;;;4994052;28;20026;-80
2021/12/30 00:29:08;;;;;;;36.97;18.35;;;-9.80;91.50;;;;;;4995239;28;20028;-82
2021/12/30 00:31:34;;;;;;;34.28;17.85;;;-9.80;91.50;;;;;;4993438;28;20034;-79
2021/12/30 00:34:00;;;;;;;33.95;17.58;;;-9.80;91.50;;;;;;4994375;28;20065;-79
2021/12/30 00:36:26;;;;;;;39.90;18.63;;;-9.70;91.60;;;;;;4993322;28;20419;-80
2021/12/30 00:38:52;;;;;;;32.90;17.30;;;-9.70;91.70;;;;;;4993344;28;20089;-81
2021/12/30 00:41:19;;;;;;;34.33;15.43;;;-9.70;91.60;;;;;;4993361;28;20023;-79
2021/12/30 00:43:46;;;;;;;28.83;15.73;;;-9.70;91.60;;;;;;4993438;28;20188;-81
2021/12/30 00:46:11;;;;;;;28.25;15.68;;;-9.70;91.70;;;;;;4993645;28;20025;-82
2021/12/30 00:48:39;;;;;;;33.15;16.85;;;-9.70;92.00;;;;;;4992353;28;20023;-81
2021/12/30 00:51:08;;;;;;;34.63;17.95;;;-9.70;92.10;;;;;;4991413;28;20102;-80
2021/12/30 00:53:34;;;;;;;38.03;19.42;;;-9.70;92.00;;;;;;4976168;28;20027;-82
2021/12/30 00:56:00;;;;;;;32.15;19.45;;;-9.60;92.00;;;;;;4992159;28;20423;-80
2021/12/30 00:58:26;;;;;;;35.53;18.38;;;-9.60;92.00;;;;;;4993118;28;20034;-81
2021/12/30 01:00:54;;;;;;;33.08;17.92;;;-9.50;92.10;;;;;;4993324;28;20022;-80
2021/12/30 01:03:21;;;;;;;26.40;13.60;;;-9.50;92.00;;;;;;4993751;28;20061;-81
2021/12/30 01:05:47;;;;;;;37.70;18.02;;;-9.40;92.10;;;;;;4993526;28;20023;-79
2021/12/30 01:08:14;;;;;;;33.20;17.52;;;-9.50;92.10;;;;;;4993890;28;20399;-78
2021/12/30 01:10:41;;;;;;;33.83;16.83;;;-9.50;92.20;;;;;;4993905;28;20507;-80
2021/12/30 01:13:14;;;;;;;;;;;-9.40;92.20;;;;;;4993911;28;20064;-79
2021/12/30 01:16:16;;;;;;;40.00;17.17;;;-9.40;92.20;;;;;;4993328;28;20330;-81
2021/12/30 01:21:24;;;;;;;28.52;15.57;;;-9.40;92.10;;;;;;5005847;28;20034;-80
2021/12/30 01:23:50;;;;;;;29.50;16.45;;;-9.40;92.10;;;;;;4993443;28;20349;-80
2021/12/30 01:26:16;;;;;;;27.33;15.70;;;-9.30;92.10;;;;;;4993276;28;20033;-80
2021/12/30 01:28:42;;;;;;;34.42;16.40;;;-9.30;92.10;;;;;;4993568;28;20026;-79
2021/12/30 01:31:09;;;;;;;39.53;19.23;;;-9.30;92.20;;;;;;4993075;28;20044;-80
2021/12/30 01:33:34;;;;;;;32.33;17.80;;;-9.30;92.20;;;;;;4992743;28;20042;-80
2021/12/30 01:36:00;;;;;;;34.38;17.33;;;-9.30;92.20;;;;;;4992024;28;20034;-79
2021/12/30 01:38:26;;;;;;;31.48;17.63;;;-9.20;92.20;;;;;;4993961;28;20050;-80
2021/12/30 01:40:54;;;;;;;37.13;17.80;;;-9.20;92.20;;;;;;4994093;28;20030;-79
2021/12/30 01:43:22;;;;;;;30.85;17.30;;;-9.20;92.20;;;;;;5008170;28;20065;-80
2021/12/30 01:45:48;;;;;;;34.05;17.63;;;-9.10;92.30;;;;;;4992755;28;20018;-80
2021/12/30 01:48:14;;;;;;;30.40;17.83;;;-9.10;92.20;;;;;;4992876;28;20502;-80
2021/12/30 01:50:40;;;;;;;30.92;15.38;;;-9.00;92.20;;;;;;4992827;28;20141;-81
2021/12/30 01:53:06;;;;;;;37.42;16.95;;;-9.00;92.10;;;;;;4992743;28;20033;-79
2021/12/30 01:55:34;;;;;;;36.03;18.00;;;-9.00;92.10;;;;;;4992778;28;20089;-80
2021/12/30 01:58:00;;;;;;;31.45;16.85;;;-9.10;92.10;;;;;;4993170;28;20035;-77
2021/12/30 02:00:27;;;;;;;34.85;20.83;;;-9.10;92.20;;;;;;4992613;28;20022;-81
2021/12/30 02:02:53;;;;;;;35.08;17.40;;;-9.00;92.20;;;;;;4993050;28;20031;-81
2021/12/30 02:05:19;;;;;;;41.65;17.25;;;-9.00;92.10;;;;;;4994136;28;20022;-80
2021/12/30 02:07:45;;;;;;;37.13;18.73;;;-9.00;92.00;;;;;;4995443;28;20027;-80
2021/12/30 02:10:13;;;;;;;33.38;17.17;;;-8.90;91.90;;;;;;5017159;28;20055;-79
2021/12/30 02:12:41;;;;;;;34.83;17.38;;;-8.90;91.90;;;;;;5014023;28;20023;-80
2021/12/30 02:15:13;;;;;;;30.60;17.27;;;-8.90;91.80;;;;;;5001992;28;20167;-78
2021/12/30 02:17:39;;;;;;;37.80;18.27;;;-8.90;91.70;;;;;;5010302;28;20462;-80
2021/12/30 02:20:09;;;;;;;28.60;16.73;;;-8.90;91.40;;;;;;4999464;28;20054;-79
2021/12/30 02:22:34;;;;;;;28.08;17.98;;;-8.90;91.50;;;;;;4997858;28;20084;-80
2021/12/30 02:25:03;;;;;;;38.58;19.08;;;-8.90;91.70;;;;;;4996186;28;20023;-80
2021/12/30 02:27:29;;;;;;;38.85;17.98;;;-8.90;91.80;;;;;;4996679;28;20035;-80
2021/12/30 02:29:55;;;;;;;31.00;18.17;;;-8.90;91.80;;;;;;4996631;28;20026;-79
2021/12/30 02:32:22;;;;;;;27.52;17.13;;;-8.80;91.90;;;;;;4995199;28;20072;-80
2021/12/30 02:34:49;;;;;;;32.95;17.88;;;-8.80;92.00;;;;;;4998580;28;20033;-80
2021/12/30 02:37:19;;;;;;;31.02;17.40;;;-8.80;92.00;;;;;;4998426;28;20787;-78
2021/12/30 02:39:52;;;;;;;36.45;19.52;;;-8.80;92.00;;;;;;4997282;28;20099;-79
2021/12/30 02:42:21;;;;;;;30.55;16.55;;;-8.90;92.00;;;;;;4996880;28;20073;-81
2021/12/30 02:44:47;;;;;;;37.45;19.23;;;-8.80;92.10;;;;;;4997978;28;20105;-80
2021/12/30 02:47:14;;;;;;;31.15;16.77;;;-8.80;92.20;;;;;;4997669;28;20054;-80
2021/12/30 02:49:41;;;;;;;32.58;17.52;;;-8.80;92.20;;;;;;5014327;28;20053;-80
2021/12/30 02:52:06;;;;;;;;;;;-8.80;92.30;;;;;;5014533;28;20033;-79
2021/12/30 02:54:33;;;;;;;31.60;17.90;;;-8.80;92.30;;;;;;5016196;28;19912;-80
2021/12/30 02:56:58;;;;;;;37.45;19.17;;;-8.80;92.20;;;;;;5017514;28;20046;-79
2021/12/30 02:59:25;;;;;;;31.77;17.08;;;-8.80;92.20;;;;;;5015049;28;20128;-80
2021/12/30 03:01:51;;;;;;;37.45;18.38;;;-8.70;92.20;;;;;;5014170;28;20129;-79
2021/12/30 03:04:17;;;;;;;37.22;17.30;;;-8.70;92.30;;;;;;5014145;28;20033;-79
2021/12/30 03:06:43;;;;;;;33.08;18.30;;;-8.70;92.30;;;;;;4998367;28;20053;-80
2021/12/30 03:09:09;;;;;;;32.53;17.67;;;-8.60;92.20;;;;;;5014083;28;20068;-81
2021/12/30 03:11:35;;;;;;;31.98;17.35;;;-8.70;92.10;;;;;;5014483;28;20026;-80
2021/12/30 03:14:01;;;;;;;38.35;20.40;;;-8.70;92.00;;;;;;5014252;28;20069;-79
2021/12/30 03:16:34;;;;;;;37.72;20.35;;;-8.70;92.00;;;;;;5021687;28;20026;-81
2021/12/30 03:19:00;;;;;;;34.40;18.75;;;-8.60;92.00;;;;;;5032486;28;20059;-81
2021/12/30 03:21:27;;;;;;;33.15;17.17;;;-8.60;92.10;;;;;;5003965;28;20035;-80
2021/12/30 03:23:56;;;;;;;34.03;19.45;;;-8.60;92.00;;;;;;4996060;28;20022;-81
2021/12/30 03:26:23;;;;;;;33.25;16.98;;;-8.60;91.90;;;;;;4995726;28;20026;-81
2021/12/30 03:28:49;;;;;;;29.33;15.68;;;-8.60;91.80;;;;;;4995335;28;20035;-81
2021/12/30 03:31:17;;;;;;;31.80;19.33;;;-8.60;91.90;;;;;;4995599;28;20391;-81
2021/12/30 03:33:44;;;;;;;33.13;17.63;;;-8.50;92.00;;;;;;4995613;28;20105;-80
2021/12/30 03:36:11;;;;;;;39.60;21.27;;;-8.50;91.90;;;;;;4995593;28;20053;-82
2021/12/30 03:38:40;;;;;;;34.65;20.50;;;-8.50;91.90;;;;;;4994983;28;20054;-80
2021/12/30 03:41:09;;;;;;;28.90;16.83;;;-8.50;91.80;;;;;;4996889;28;20479;-79
2021/12/30 03:43:35;;;;;;;41.47;19.20;;;-8.50;91.70;;;;;;4997859;28;20568;-79
2021/12/30 03:46:01;;;;;;;33.60;18.27;;;-8.50;91.80;;;;;;4997414;28;20547;-81
2021/12/30 03:48:33;;;;;;;26.00;13.30;;;-8.50;91.80;;;;;;5000090;28;20498;-81
2021/12/30 03:51:05;;;;;;;33.95;18.77;;;-8.50;91.90;;;;;;4996145;28;20049;-79
2021/12/30 03:53:31;;;;;;;34.03;19.35;;;-8.50;92.00;;;;;;5006136;28;20034;-79
2021/12/30 03:55:56;;;;;;;30.77;17.67;;;-8.50;92.10;;;;;;5011202;28;20034;-77
2021/12/30 03:58:22;;;;;;;33.50;16.92;;;-8.40;92.10;;;;;;4976284;28;20042;-78
2021/12/30 04:00:48;;;;;;;34.08;17.50;;;-8.40;92.10;;;;;;4975950;28;20033;-78
2021/12/30 04:03:14;;;;;;;41.47;18.88;;;-8.40;92.10;;;;;;4976110;28;20099;-79
2021/12/30 04:05:39;;;;;;;33.60;19.42;;;-8.40;92.10;;;;;;4975602;28;20117;-79
2021/12/30 04:08:07;;;;;;;34.28;15.13;;;-8.50;92.10;;;;;;4975147;28;20023;-81
2021/12/30 04:10:34;;;;;;;31.70;18.38;;;-8.40;92.20;;;;;;4974972;28;20034;-78
2021/12/30 04:13:00;;;;;;;32.42;17.65;;;-8.50;92.20;;;;;;4975255;28;20023;-79
2021/12/30 04:15:28;;;;;;;31.70;16.33;;;-8.50;92.30;;;;;;4974801;28;20073;-78
2021/12/30 04:17:54;;;;;;;24.88;11.90;;;-8.50;92.30;;;;;;4974934;28;20042;-80
2021/12/30 04:20:20;;;;;;;34.58;17.23;;;-8.50;92.40;;;;;;4973626;28;20117;-78
2021/12/30 04:22:45;;;;;;;38.55;19.25;;;-8.50;92.60;;;;;;4974723;28;20019;-79
2021/12/30 04:25:15;;;;;;;26.58;15.85;;;-8.50;92.70;;;;;;4975203;28;20023;-78
2021/12/30 04:27:42;;;;;;;32.95;14.95;;;-8.50;92.60;;;;;;4974312;28;20061;-80
2021/12/30 04:30:10;;;;;;;40.00;22.60;;;-8.60;92.70;;;;;;4983214;28;20467;-77
2021/12/30 04:32:36;;;;;;;28.75;15.80;;;-8.50;92.90;;;;;;4977623;28;20434;-78
2021/12/30 04:35:03;;;;;;;34.28;18.55;;;-8.50;92.90;;;;;;4977169;28;20057;-80
2021/12/30 04:37:29;;;;;;;35.55;19.08;;;-8.50;92.90;;;;;;4976465;28;20038;-79
2021/12/30 04:39:54;;;;;;;40.90;22.95;;;-8.50;93.00;;;;;;4976866;28;20027;-80
2021/12/30 04:42:20;;;;;;;38.28;18.45;;;-8.50;93.00;;;;;;4975317;28;20110;-79
2021/12/30 04:44:48;;;;;;;38.67;16.23;;;-8.40;93.00;;;;;;4974391;28;20027;-81
2021/12/30 04:47:14;;;;;;;;;;;-8.50;93.10;;;;;;4975405;28;20388;-80
2021/12/30 04:49:41;;;;;;;36.17;17.77;;;-8.50;93.20;;;;;;4991492;28;19906;-81
2021/12/30 04:52:06;;;;;;;37.65;18.40;;;-8.60;93.30;;;;;;4993379;28;20027;-79
2021/12/30 04:54:32;;;;;;;44.67;20.63;;;-8.60;93.40;;;;;;4992080;28;20430;-81
2021/12/30 04:56:58;;;;;;;45.03;20.33;;;-8.60;93.60;;;;;;4994608;28;20570;-81
2021/12/30 04:59:24;;;;;;;32.05;19.45;;;-8.60;93.80;;;;;;4994385;28;20050;-81
2021/12/30 05:01:50;;;;;;;46.42;22.77;;;-8.60;93.70;;;;;;4990275;28;20456;-80
2021/12/30 05:04:16;;;;;;;39.33;20.17;;;-8.60;93.80;;;;;;4993788;28;20019;-81
2021/12/30 05:06:42;;;;;;;24.52;16.83;;;-8.50;93.80;;;;;;4992416;28;20037;-80
2021/12/30 05:09:10;;;;;;;40.50;20.27;;;-8.50;93.90;;;;;;5002685;28;20027;-81
2021/12/30 05:11:40;;;;;;;40.15;20.73;;;-8.50;93.90;;;;;;5005280;28;20030;-80
2021/12/30 05:14:06;;;;;;;45.47;23.33;;;-8.50;93.90;;;;;;5008378;28;20026;-80
2021/12/30 05:16:32;;;;;;;41.00;20.92;;;-8.50;93.80;;;;;;5008641;28;20046;-81
2021/12/30 05:18:58;;;;;;;26.90;12.95;;;-8.40;93.80;;;;;;4993990;28;20037;-80
2021/12/30 05:21:25;;;;;;;43.08;19.67;;;-8.40;93.70;;;;;;4993728;28;20019;-81
2021/12/30 05:23:51;;;;;;;34.40;18.35;;;-8.40;93.70;;;;;;4994169;28;20037;-81
2021/12/30 05:26:18;;;;;;;33.38;16.23;;;-8.50;93.90;;;;;;4993922;28;20030;-81
2021/12/30 05:28:44;;;;;;;33.20;17.30;;;-8.50;94.10;;;;;;4994348;28;20081;-81
2021/12/30 05:31:10;;;;;;;37.72;19.02;;;-8.50;94.10;;;;;;5001476;28;20041;-81
2021/12/30 05:33:36;;;;;;;34.92;18.83;;;-8.50;94.30;;;;;;4999276;28;20027;-83
2021/12/30 05:36:02;;;;;;;33.35;18.52;;;-8.50;94.30;;;;;;4993448;28;20030;-80
2021/12/30 05:38:27;;;;;;;30.77;18.63;;;-8.50;94.40;;;;;;4992920;28;20054;-82
2021/12/30 05:40:53;;;;;;;38.70;19.75;;;-8.40;94.30;;;;;;4993228;28;20471;-80
2021/12/30 05:43:19;;;;;;;31.70;20.77;;;-8.30;94.20;;;;;;4992896;28;20160;-82
2021/12/30 05:45:45;;;;;;;36.58;18.40;;;-8.30;94.10;;;;;;4990973;28;20499;-79
2021/12/30 05:48:10;;;;;;;37.45;18.67;;;-8.30;94.10;;;;;;4993865;28;20125;-81
2021/12/30 05:50:36;;;;;;;30.98;17.05;;;-8.20;94.00;;;;;;4994868;28;20027;-79
2021/12/30 05:53:03;;;;;;;39.63;19.17;;;-8.20;94.00;;;;;;4993002;28;20026;-79
2021/12/30 05:55:30;;;;;;;32.83;18.27;;;-8.20;94.00;;;;;;4992417;28;20026;-81
2021/12/30 05:57:57;;;;;;;33.78;16.55;;;-8.20;94.00;;;;;;4990987;28;20045;-81
2021/12/30 06:00:25;;;;;;;40.05;21.23;;;-8.20;94.00;;;;;;4991857;28;20031;-81
2021/12/30 06:02:51;;;;;;;36.72;18.27;;;-8.20;94.00;;;;;;4992902;28;20065;-80
2021/12/30 06:05:17;;;;;;;32.67;19.67;;;-8.20;94.00;;;;;;4993157;28;20054;-81
2021/12/30 06:07:43;;;;;;;42.08;20.25;;;-8.10;93.90;;;;;;4993615;28;20023;-82
2021/12/30 06:10:10;;;;;;;39.88;19.58;;;-8.10;93.90;;;;;;4993780;28;20528;-81
2021/12/30 06:12:36;;;;;;;37.17;18.83;;;-8.10;93.90;;;;;;4991921;28;20034;-82
2021/12/30 06:15:02;;;;;;;32.08;18.63;;;-8.10;93.90;;;;;;4993010;28;20026;-80
2021/12/30 06:17:28;;;;;;;30.17;18.47;;;-8.10;93.90;;;;;;4993800;28;20026;-79
2021/12/30 06:19:54;;;;;;;36.47;21.27;;;-8.00;93.80;;;;;;4992988;28;20076;-80
2021/12/30 06:22:20;;;;;;;37.90;18.80;;;-8.00;93.70;;;;;;4992599;28;20026;-80
2021/12/30 06:24:46;;;;;;;39.78;19.42;;;-8.00;93.70;;;;;;4992620;28;20026;-81
2021/12/30 06:27:11;;;;;;;37.90;18.42;;;-7.90;93.70;;;;;;4992842;28;20034;-82
2021/12/30 06:29:38;;;;;;;37.88;18.63;;;-7.90;93.70;;;;;;4993037;28;20386;-82
2021/12/30 06:32:05;;;;;;;35.63;18.40;;;-7.80;93.70;;;;;;4992625;28;20102;-80
2021/12/30 06:34:32;;;;;;;36.20;19.10;;;-7.90;93.70;;;;;;4994319;28;20030;-81
2021/12/30 06:36:57;;;;;;;40.63;19.08;;;-7.90;93.70;;;;;;4992939;28;20395;-82
2021/12/30 06:39:23;;;;;;;33.45;17.85;;;-7.90;93.70;;;;;;4991323;28;20073;-80
2021/12/30 06:41:49;;;;;;;45.47;21.45;;;-7.90;93.80;;;;;;4992655;28;20031;-80
2021/12/30 06:44:15;;;;;;;34.83;20.48;;;-7.90;94.10;;;;;;4992433;28;20060;-81
2021/12/30 06:46:52;;;;;;;32.92;18.17;;;-7.80;93.80;;;;;;4992424;28;20054;-82
2021/12/30 06:49:18;;;;;;;38.28;17.77;;;-7.80;93.70;;;;;;4992871;28;20101;-81
2021/12/30 06:51:44;;;;;;;37.10;19.35;;;-7.80;93.70;;;;;;4993107;28;20042;-82
2021/12/30 06:54:10;;;;;;;35.80;18.52;;;-7.70;93.70;;;;;;4993319;28;20068;-81
2021/12/30 06:56:37;;;;;;;41.30;21.25;;;-7.70;93.70;;;;;;4995516;28;20384;-80
2021/12/30 06:59:03;;;;;;;36.13;17.77;;;-7.70;93.80;;;;;;4996428;28;20080;-82
2021/12/30 07:01:30;;;;;;;39.85;20.85;;;-7.70;93.80;;;;;;4996254;28;20495;-82
2021/12/30 07:03:56;;;;;;;32.42;17.63;;;-7.60;93.80;;;;;;4995301;28;20031;-81
2021/12/30 07:06:22;;;;;;;37.80;20.17;;;-7.60;93.70;;;;;;4996951;28;20068;-84
2021/12/30 07:08:48;;;;;;;45.20;21.08;;;-7.50;93.70;;;;;;4996932;28;20030;-80
2021/12/30 07:11:13;;;;;;;39.10;21.42;;;-7.50;93.70;;;;;;4995088;28;20037;-80
2021/12/30 07:13:39;;;;;;;52.67;27.02;;;-7.40;93.60;;;;;;4995559;28;20064;-84
2021/12/30 07:16:06;;;;;;;37.65;19.23;;;-7.40;93.60;;;;;;4996355;28;20030;-83
2021/12/30 07:18:32;;;;;;;41.42;22.38;;;-7.40;93.60;;;;;;4997326;28;20034;-81
2021/12/30 07:20:58;;;;;;;46.70;22.65;;;-7.40;93.30;;;;;;4996515;28;20058;-83
2021/12/30 07:23:23;;;;;;;35.75;20.27;;;-7.40;93.20;;;;;;4996220;28;20034;-82
2021/12/30 07:25:49;;;;;;;34.35;18.00;;;-7.40;93.30;;;;;;4995995;28;20018;-81
2021/12/30 07:28:15;;;;;;;31.15;17.45;;;-7.40;93.40;;;;;;4994676;28;20534;-82
2021/12/30 07:30:41;;;;;;;47.25;18.58;;;-7.40;93.60;;;;;;4996696;28;20073;-82
2021/12/30 07:33:07;;;;;;;44.78;19.98;;;-7.50;93.70;;;;;;4996306;28;20105;-81
2021/12/30 07:35:35;;;;;;;34.67;17.88;;;-7.50;93.90;;;;;;4996358;28;20513;-83
2021/12/30 07:38:01;;;;;;;33.00;16.15;;;-7.60;94.10;;;;;;4995780;28;20141;-82
2021/12/30 07:40:28;;;;;;;27.73;17.10;;;-7.70;94.10;;;;;;4996199;28;20018;-84
2021/12/30 07:42:54;;;;;;;35.67;17.38;;;-7.70;94.30;;;;;;4994416;28;20034;-81
2021/12/30 07:45:20;;;;;;;32.65;14.65;;;-7.80;94.30;;;;;;4998189;28;20105;-83
2021/12/30 07:47:46;;;;;;;36.08;17.25;;;-7.80;94.30;;;;;;4995652;28;20025;-83
2021/12/30 07:50:13;;;;;;;36.35;19.52;;;-7.90;94.30;;;;;;4996726;28;20053;-81
2021/12/30 07:52:40;;;;;;;26.20;13.93;;;-8.00;94.50;;;;;;4996578;28;20112;-84
2021/12/30 07:55:07;;;;;;;29.65;15.35;;;-8.00;94.70;;;;;;4999383;28;20031;-81
2021/12/30 07:57:33;;;;;;;;;;;-8.00;94.80;;;;;;5017545;28;20118;-82
2021/12/30 07:59:59;;;;;;;41.10;19.65;;;-7.90;95.00;;;;;;5002970;28;20311;-84
2021/12/30 08:02:25;;;;;;;27.88;12.70;;;-7.90;95.20;;;;;;5001881;28;20038;-83
2021/12/30 08:04:50;;;;;;;33.13;17.85;;;-7.90;95.40;;;;;;4996575;28;20034;-83
2021/12/30 08:07:21;;;;;;;42.50;18.27;;;-7.80;95.30;;;;;;4995582;28;20487;-81
2021/12/30 08:09:47;;;;;;;42.63;22.00;;;-7.80;95.50;;;;;;4996829;28;20510;-83
2021/12/30 08:12:13;;;;;;;42.17;21.23;;;-7.80;95.50;;;;;;5003686;28;20027;-81
2021/12/30 08:14:39;;;;;;;34.28;17.92;;;-7.80;95.40;;;;;;5009658;28;20037;-82
2021/12/30 08:17:05;;;;;;;43.03;20.77;;;-7.80;95.70;;;;;;4998771;28;20434;-84
2021/12/30 08:19:31;;;;;;;33.97;18.40;;;-7.70;95.80;;;;;;4996601;28;20061;-84
2021/12/30 08:21:56;;;;;;;45.45;22.48;;;-7.70;95.90;;;;;;4995056;28;20479;-84
2021/12/30 08:24:22;;;;;;;29.05;13.82;;;-7.60;96.00;;;;;;4994650;28;20093;-83
2021/12/30 08:26:48;;;;;;;51.13;22.45;;;-7.60;96.00;;;;;;4994433;28;20086;-83
2021/12/30 08:29:15;;;;;;;45.72;21.17;;;-7.50;96.10;;;;;;4994624;28;20038;-83
2021/12/30 08:31:41;;;;;;;48.17;22.02;;;-7.50;96.30;;;;;;4994947;28;20079;-82
2021/12/30 08:34:08;;;;;;;41.08;20.98;;;-7.40;96.30;;;;;;4995052;28;20033;-82
2021/12/30 08:36:34;;;;;;;26.60;10.77;;;-7.30;96.30;;;;;;4994776;28;20403;-83
2021/12/30 08:39:00;;;;;;;41.08;17.85;;;-7.20;96.00;;;;;;4994542;28;20101;-82
2021/12/30 08:41:26;;;;;;;42.22;19.85;;;-7.30;95.70;;;;;;4993151;28;20437;-81
2021/12/30 08:43:52;;;;;;;35.77;18.37;;;-7.30;95.90;;;;;;4994736;28;20054;-80
2021/12/30 08:46:18;;;;;;;32.30;16.05;;;-7.20;96.10;;;;;;4995818;28;20068;-85
2021/12/30 08:48:44;;;;;;;37.70;18.13;;;-7.10;96.40;;;;;;4998480;28;20117;-82
2021/12/30 08:51:10;;;;;;;45.55;19.63;;;-7.10;95.60;;;;;;5000653;28;20029;-79
2021/12/30 08:53:40;;;;;;;47.65;17.95;;;-7.10;95.50;;;;;;5001062;28;20444;-84
2021/12/30 08:56:08;;;;;;;36.85;17.20;;;-7.10;95.70;;;;;;4995484;28;20049;-81
2021/12/30 08:58:35;;;;;;;43.50;17.52;;;-7.10;95.90;;;;;;4996826;28;20085;-84
2021/12/30 09:01:01;;;;;;;31.10;15.98;;;-7.10;95.50;;;;;;4995490;28;20023;-81
2021/12/30 09:03:27;;;;;;;29.90;15.07;;;-7.20;95.10;;;;;;4995225;28;20031;-81
2021/12/30 09:05:53;;;;;;;33.08;15.05;;;-7.20;95.10;;;;;;4994408;28;20354;-85
2021/12/30 09:08:19;;;;;;;34.95;15.82;;;-7.20;95.40;;;;;;4995150;28;20038;-80
2021/12/30 09:10:46;;;;;;;33.80;16.83;;;-7.20;95.40;;;;;;4995914;28;20085;-81
2021/12/30 09:13:16;;;;;;;34.63;16.50;;;-7.20;95.60;;;;;;4994332;28;20133;-81
2021/12/30 09:15:42;;;;;;;39.30;15.98;;;-7.20;95.60;;;;;;4998206;28;20089;-83
2021/12/30 09:18:10;;;;;;;36.58;17.60;;;-7.20;95.50;;;;;;4994440;28;20038;-82
2021/12/30 09:20:38;;;;;;;38.97;18.02;;;-7.20;95.50;;;;;;4997252;28;20026;-82
2021/12/30 09:23:05;;;;;;;34.28;18.38;;;-7.20;95.60;;;;;;4995893;28;20034;-82
2021/12/30 09:25:31;;;;;;;;;;;-7.20;95.60;;;;;;4995151;28;20018;-81
2021/12/30 09:27:58;;;;;;;32.03;16.90;;;-7.20;95.60;;;;;;4993562;28;19906;-83
2021/12/30 09:30:25;;;;;;;39.63;18.47;;;-7.20;95.60;;;;;;4993226;28;20097;-81
2021/12/30 09:32:54;;;;;;;32.58;17.85;;;-7.10;95.80;;;;;;4993765;28;20022;-84
2021/12/30 09:35:21;;;;;;;39.00;21.13;;;-7.10;96.00;;;;;;4994965;28;20031;-83
2021/12/30 09:37:47;;;;;;;55.63;21.95;;;-7.10;96.00;;;;;;4993515;28;20050;-82
2021/12/30 09:40:15;;;;;;;37.47;17.13;;;-7.00;96.10;;;;;;4994020;28;20036;-84
2021/12/30 09:42:48;;;;;;;34.65;20.42;;;-7.00;96.10;;;;;;4993300;28;20030;-83
2021/12/30 09:45:14;;;;;;;36.17;19.10;;;-7.00;96.20;;;;;;4992121;28;20022;-83
2021/12/30 09:47:44;;;;;;;40.67;19.23;;;-6.90;96.20;;;;;;4992559;28;20030;-83
2021/12/30 09:50:10;;;;;;;41.97;22.90;;;-6.90;96.30;;;;;;4991822;28;20030;-85
2021/12/30 09:52:36;;;;;;;44.13;22.05;;;-6.90;96.30;;;;;;4993364;28;20015;-82
2021/12/30 09:55:02;;;;;;;37.10;18.98;;;-6.80;96.20;;;;;;4993961;28;20109;-82
2021/12/30 09:57:28;;;;;;;40.28;19.92;;;-6.80;96.20;;;;;;4995222;28;20038;-82
2021/12/30 09:59:54;;;;;;;39.63;18.40;;;-6.80;96.20;;;;;;4995155;28;20387;-82
2021/12/30 10:02:20;;;;;;;39.90;19.98;;;-6.80;96.20;;;;;;4993929;28;20018;-80
2021/12/30 10:04:45;;;;;;;42.55;21.90;;;-6.70;96.30;;;;;;4993452;28;20026;-82
2021/12/30 10:07:20;;;;;;;39.15;16.77;;;-6.70;96.30;;;;;;4993367;28;20030;-81
2021/12/30 10:09:50;;;;;;;34.92;19.17;;;-6.60;96.30;;;;;;4992900;28;20027;-83
2021/12/30 10:12:39;;;;;;;40.40;18.58;;;-6.60;96.30;;;;;;4992980;28;20029;-82
2021/12/30 10:15:06;;;;;;;37.97;18.33;;;-6.60;96.30;;;;;;4992875;28;20022;-81
2021/12/30 10:17:32;;;;;;;;;;;-6.60;96.40;;;;;;4993518;28;20117;-82
2021/12/30 10:20:18;;;;;;;43.45;19.92;;;-6.60;96.40;;;;;;4994110;28;19944;-82
2021/12/30 10:22:46;;;;;;;34.63;17.53;;;-6.50;96.40;;;;;;4993445;28;20026;-82
2021/12/30 10:25:29;;;;;;;38.58;19.27;;;-6.40;96.30;;;;;;4993519;28;20109;-82
2021/12/30 10:27:55;;;;;;;37.75;19.75;;;-6.40;96.30;;;;;;4993573;28;20111;-82
2021/12/30 10:30:32;;;;;;;38.50;17.77;;;-6.40;96.40;;;;;;4996316;28;20412;-81
2021/12/30 10:33:16;;;;;;;35.50;18.25;;;-6.40;96.40;;;;;;5011983;28;20034;-83
2021/12/30 10:35:42;;;;;;;33.97;18.23;;;-6.40;96.30;;;;;;4997278;28;20042;-84
2021/12/30 10:38:10;;;;;;;44.25;20.30;;;-6.50;96.20;;;;;;4995503;28;20050;-82
2021/12/30 10:40:43;;;;;;;32.67;16.33;;;-6.50;96.40;;;;;;4996671;28;20467;-84
2021/12/30 10:43:44;;;;;;;41.58;19.38;;;-6.50;96.50;;;;;;4996340;28;20117;-82
2021/12/30 10:46:22;;;;;;;42.45;17.15;;;-6.50;96.70;;;;;;4996853;28;20049;-83
2021/12/30 10:48:52;;;;;;;38.90;18.55;;;-6.60;96.50;;;;;;4997564;28;20030;-79
2021/12/30 10:51:37;;;;;;;41.72;20.30;;;-6.60;96.70;;;;;;4998739;28;20116;-82
2021/12/30 10:54:21;;;;;;;34.45;19.88;;;-6.60;96.80;;;;;;4999185;28;20022;-82
2021/12/30 10:57:01;;;;;;;48.17;20.98;;;-6.60;96.90;;;;;;4997127;28;20433;-81
2021/12/30 10:59:44;;;;;;;43.92;22.73;;;-6.50;97.10;;;;;;4996759;28;20023;-81
2021/12/30 11:02:17;;;;;;;48.33;21.45;;;-6.40;97.20;;;;;;4995702;28;20491;-81
2021/12/30 11:04:53;;;;;;;35.65;19.63;;;-6.40;97.00;;;;;;4997551;28;20037;-81
2021/12/30 11:07:24;;;;;;;44.70;23.92;;;-6.40;96.90;;;;;;4998502;28;20471;-81
2021/12/30 11:09:53;;;;;;;43.15;21.27;;;-6.40;97.10;;;;;;4998902;28;20026;-83
2021/12/30 11:12:25;;;;;;;39.38;18.98;;;-6.40;97.10;;;;;;5004918;28;20024;-82
2021/12/30 11:14:51;;;;;;;40.35;19.75;;;-6.40;97.10;;;;;;5000646;28;20189;-83
2021/12/30 11:17:33;;;;;;;45.95;22.85;;;-6.30;97.50;;;;;;4998298;28;20081;-85
2021/12/30 11:20:05;;;;;;;49.95;28.63;;;-6.30;97.30;;;;;;4996582;28;20019;-81
2021/12/30 11:22:32;;;;;;;42.85;21.80;;;-6.20;97.30;;;;;;4996013;28;20034;-82
2021/12/30 11:25:00;;;;;;;41.05;22.10;;;-6.20;97.10;;;;;;4995176;28;20033;-83
2021/12/30 11:27:28;;;;;;;44.10;23.17;;;-6.20;97.00;;;;;;4994491;28;20447;-83
2021/12/30 11:30:00;;;;;;;36.20;17.52;;;-6.20;97.00;;;;;;4995288;28;20037;-81
2021/12/30 11:32:30;;;;;;;46.33;22.17;;;-6.20;97.20;;;;;;4993807;28;20037;-82
2021/12/30 11:34:57;;;;;;;37.80;20.05;;;-6.20;97.10;;;;;;4996924;28;20049;-84
2021/12/30 11:37:24;;;;;;;37.72;21.48;;;-6.20;97.20;;;;;;4995159;28;20400;-82
2021/12/30 11:39:53;;;;;;;51.95;25.05;;;-6.20;97.20;;;;;;4995814;28;20055;-83
2021/12/30 11:42:24;;;;;;;41.45;21.48;;;-6.20;97.30;;;;;;4994857;28;20041;-81
2021/12/30 11:44:55;;;;;;;44.40;26.52;;;-6.10;97.30;;;;;;4996050;28;20053;-81
2021/12/30 11:47:36;;;;;;;46.33;22.92;;;-6.10;97.20;;;;;;4995682;28;20262;-82
2021/12/30 11:50:17;;;;;;;42.00;22.10;;;-6.10;97.20;;;;;;4996472;28;20030;-81
2021/12/30 11:52:47;;;;;;;42.75;23.58;;;-6.10;97.20;;;;;;4994941;28;20114;-81
2021/12/30 11:55:50;;;;;;;51.90;22.88;;;-6.10;97.10;;;;;;4996727;28;20369;-80
2021/12/30 11:58:31;;;;;;;41.78;20.73;;;-6.10;97.10;;;;;;5005183;28;20034;-81
2021/12/30 12:01:07;;;;;;;42.90;19.98;;;-6.20;97.10;;;;;;5010170;28;20026;-83
2021/12/30 12:03:36;;;;;;;44.50;23.08;;;-6.20;97.10;;;;;;4997492;28;20522;-80
2021/12/30 12:06:04;;;;;;;40.10;23.90;;;-6.30;96.90;;;;;;4996299;28;20053;-83
2021/12/30 12:08:42;;;;;;;31.48;15.20;;;-6.40;97.00;;;;;;4997022;28;20039;-84
2021/12/30 12:11:19;;;;;;;42.55;20.45;;;-6.40;97.00;;;;;;5001066;28;20023;-82
2021/12/30 12:13:48;;;;;;;46.13;23.48;;;-6.40;96.90;;;;;;5002276;28;20026;-81
2021/12/30 12:16:35;;;;;;;40.63;22.92;;;-6.50;97.00;;;;;;4995890;28;20053;-84
2021/12/30 12:19:09;;;;;;;43.80;22.00;;;-6.40;97.30;;;;;;4996913;28;20404;-81
2021/12/30 12:21:45;;;;;;;36.85;18.50;;;-6.30;97.50;;;;;;4999614;28;20039;-82
2021/12/30 12:24:23;;;;;;;37.78;20.23;;;-6.30;97.40;;;;;;5006042;28;20036;-82
2021/12/30 12:26:57;;;;;;;39.40;21.58;;;-6.30;97.20;;;;;;4996229;28;20042;-82
2021/12/30 12:29:41;;;;;;;44.22;22.05;;;-6.30;97.30;;;;;;4992938;28;20037;-83
2021/12/30 12:32:14;;;;;;;33.22;20.75;;;-6.30;97.30;;;;;;4994735;28;20030;-85
2021/12/30 12:34:53;;;;;;;36.78;19.83;;;-6.30;97.30;;;;;;4994654;28;20041;-82
2021/12/30 12:37:32;;;;;;;44.00;22.15;;;-6.20;97.30;;;;;;4994761;28;20038;-81